Terminal Aerodrome Forecast
Issued by NWS

Home | Current Version | Previous Version | Text Only | Print | Product List | Glossary On
Versions: 1 2 3 4 5 6 7 8 9 10 11 12 13 14 15 16 17 18 19 20 21 22
000
FTUS41 KPBZ 032200 AAD
TAFBVI
TAF AMD
KBVI 032211Z 0322/0418 14008KT 3SM -RA BR SCT003 OVC007
      TEMPO 0322/0324 3/4SM -RA BR BKN003
     FM040000 20005KT 2SM -RA BR OVC007 WS020/23045KT
     FM041300 VRB05KT 4SM -SN OVC010=

USA.gov is the U.S. government's official web portal to all federal, state and local government web resources and services.